createdAt,value
2023-04-25T00:00:22.637Z,94595.00
2023-04-25T00:01:22.655Z,94595.00
2023-04-25T00:02:22.784Z,94595.00
2023-04-25T00:03:23.141Z,94595.00
2023-04-25T00:04:23.380Z,94595.00
2023-04-25T00:05:21.939Z,94597.00
2023-04-25T00:06:22.739Z,94595.00
2023-04-25T00:07:22.784Z,94599.00
2023-04-25T00:08:22.814Z,94597.00
2023-04-25T00:09:22.854Z,94593.00
2023-04-25T00:10:22.893Z,94597.00
2023-04-25T00:11:22.929Z,94599.00
2023-04-25T00:12:22.962Z,94599.00
2023-04-25T00:13:23.143Z,94599.00
2023-04-25T00:14:23.061Z,94599.00
2023-04-25T00:15:23.056Z,94601.00
2023-04-25T00:16:23.166Z,94599.00
2023-04-25T00:17:23.178Z,94601.00
2023-04-25T00:18:23.131Z,94597.00
2023-04-25T00:19:23.180Z,94597.00
2023-04-25T00:20:23.190Z,94595.00
2023-04-25T00:21:23.227Z,94591.00
2023-04-25T00:22:23.267Z,94591.00
2023-04-25T00:23:23.287Z,94590.00
2023-04-25T00:24:23.346Z,94586.00
2023-04-25T00:25:23.374Z,94597.00
2023-04-25T00:26:23.402Z,94588.00
2023-04-25T00:27:23.440Z,94590.00
2023-04-25T00:28:23.492Z,94586.00
2023-04-25T00:29:23.507Z,94582.00
2023-04-25T00:30:23.596Z,94586.00
2023-04-25T00:31:23.621Z,94584.00
2023-04-25T00:32:23.603Z,94584.00
2023-04-25T00:33:23.619Z,94582.00
2023-04-25T00:34:23.655Z,94582.00
2023-04-25T00:35:23.692Z,94582.00
2023-04-25T00:36:23.712Z,94582.00
2023-04-25T00:37:23.785Z,94582.00
2023-04-25T00:38:23.766Z,94580.00
2023-04-25T00:39:23.800Z,94578.00
2023-04-25T00:40:23.825Z,94578.00
2023-04-25T00:41:23.855Z,94580.00
2023-04-25T00:42:23.866Z,94578.00
2023-04-25T00:43:23.884Z,94580.00
2023-04-25T00:44:23.909Z,94578.00
2023-04-25T00:45:23.922Z,94576.00
2023-04-25T00:46:24.908Z,94580.00
2023-04-25T00:47:23.985Z,94580.00
2023-04-25T00:48:24.001Z,94580.00
2023-04-25T00:49:24.076Z,94576.00
2023-04-25T00:50:24.159Z,94578.00
2023-04-25T00:51:24.226Z,94574.00
2023-04-25T00:52:24.282Z,94570.00
2023-04-25T00:53:24.314Z,94570.00
2023-04-25T00:54:24.346Z,94570.00
2023-04-25T00:55:24.363Z,94570.00
2023-04-25T00:56:24.413Z,94572.00
2023-04-25T00:57:24.408Z,94572.00
2023-04-25T00:58:24.462Z,94568.00
2023-04-25T00:59:24.508Z,94568.00
2023-04-25T01:00:24.582Z,94566.00
2023-04-25T01:01:24.752Z,94568.00
2023-04-25T01:02:24.802Z,94564.00
2023-04-25T01:03:24.896Z,94562.00
2023-04-25T01:04:24.770Z,94562.00
2023-04-25T01:05:24.770Z,94566.00
2023-04-25T01:06:24.797Z,94564.00
2023-04-25T01:07:24.896Z,94568.00
2023-04-25T01:08:24.947Z,94570.00
2023-04-25T01:09:25.021Z,94568.00
2023-04-25T01:10:25.075Z,94570.00
2023-04-25T01:11:25.103Z,94570.00
2023-04-25T01:12:25.121Z,94570.00
2023-04-25T01:13:25.164Z,94570.00
2023-04-25T01:14:25.205Z,94568.00
2023-04-25T01:15:25.255Z,94566.00
2023-04-25T01:16:25.370Z,94570.00
2023-04-25T01:17:25.424Z,94566.00
2023-04-25T01:18:25.506Z,94566.00
2023-04-25T01:19:25.503Z,94562.00
2023-04-25T01:20:25.493Z,94566.00
2023-04-25T01:21:25.556Z,94564.00
2023-04-25T01:22:25.589Z,94568.00
2023-04-25T01:23:25.636Z,94568.00
2023-04-25T01:24:25.660Z,94570.00
2023-04-25T01:25:25.706Z,94572.00
2023-04-25T01:26:25.779Z,94576.00
2023-04-25T01:27:25.835Z,94576.00
2023-04-25T01:28:25.885Z,94578.00
2023-04-25T01:29:25.957Z,94576.00
2023-04-25T01:30:26.013Z,94574.00
2023-04-25T01:31:26.123Z,94574.00
2023-04-25T01:32:26.120Z,94576.00
2023-04-25T01:33:26.170Z,94572.00
2023-04-25T01:34:26.235Z,94572.00
2023-04-25T01:35:26.260Z,94570.00
2023-04-25T01:36:26.284Z,94572.00
2023-04-25T01:37:26.279Z,94572.00
2023-04-25T01:38:26.314Z,94576.00
2023-04-25T01:39:26.313Z,94572.00
2023-04-25T01:40:26.332Z,94572.00
2023-04-25T01:41:26.329Z,94568.00
2023-04-25T01:42:26.345Z,94568.00
2023-04-25T01:43:26.346Z,94568.00
2023-04-25T01:44:26.350Z,94570.00
2023-04-25T01:45:26.363Z,94570.00
2023-04-25T01:46:26.480Z,94570.00
2023-04-25T01:47:26.463Z,94570.00
2023-04-25T01:48:26.401Z,94572.00
2023-04-25T01:49:26.412Z,94574.00
2023-04-25T01:50:26.432Z,94572.00
2023-04-25T01:51:26.435Z,94572.00
2023-04-25T01:52:26.420Z,94572.00
2023-04-25T01:53:26.408Z,94570.00
2023-04-25T01:54:26.437Z,94570.00
2023-04-25T01:55:26.441Z,94568.00
2023-04-25T01:56:26.426Z,94566.00
2023-04-25T01:57:26.439Z,94562.00
2023-04-25T01:58:26.473Z,94566.00
2023-04-25T01:59:26.524Z,94570.00
2023-04-25T02:00:26.588Z,94570.00
2023-04-25T02:01:26.674Z,94570.00
2023-04-25T02:02:26.834Z,94574.00
2023-04-25T02:03:26.805Z,94574.00
2023-04-25T02:04:26.889Z,94576.00
2023-04-25T02:05:26.854Z,94574.00
2023-04-25T02:06:26.931Z,94574.00
2023-04-25T02:07:26.999Z,94570.00
2023-04-25T02:08:27.063Z,94570.00
2023-04-25T02:09:27.089Z,94568.00
2023-04-25T02:10:27.111Z,94572.00
2023-04-25T02:11:27.151Z,94570.00
2023-04-25T02:12:27.228Z,94568.00
2023-04-25T02:13:27.246Z,94570.00
2023-04-25T02:14:27.306Z,94564.00
2023-04-25T02:15:27.385Z,94562.00
2023-04-25T02:16:27.515Z,94562.00
2023-04-25T02:17:27.497Z,94562.00
2023-04-25T02:18:27.559Z,94560.00
2023-04-25T02:19:27.656Z,94566.00
2023-04-25T02:20:27.673Z,94568.00
2023-04-25T02:21:27.752Z,94568.00
2023-04-25T02:22:27.857Z,94570.00
2023-04-25T02:23:27.886Z,94570.00
2023-04-25T02:24:27.930Z,94572.00
2023-04-25T02:25:27.984Z,94570.00
2023-04-25T02:26:28.023Z,94572.00
2023-04-25T02:27:28.038Z,94572.00
2023-04-25T02:28:28.059Z,94570.00
2023-04-25T02:29:28.080Z,94566.00
2023-04-25T02:30:28.131Z,94564.00
2023-04-25T02:31:28.209Z,94564.00
2023-04-25T02:32:28.323Z,94566.00
2023-04-25T02:33:28.319Z,94566.00
2023-04-25T02:34:28.388Z,94564.00
2023-04-25T02:35:28.442Z,94566.00
2023-04-25T02:36:28.501Z,94564.00
2023-04-25T02:37:28.555Z,94566.00
2023-04-25T02:38:28.632Z,94562.00
2023-04-25T02:39:28.652Z,94562.00
2023-04-25T02:40:28.707Z,94564.00
2023-04-25T02:41:28.755Z,94564.00
2023-04-25T02:42:28.810Z,94564.00
2023-04-25T02:43:28.889Z,94566.00
2023-04-25T02:44:29.001Z,94558.00
2023-04-25T02:45:29.039Z,94562.00
2023-04-25T02:46:38.857Z,94558.00
2023-04-25T02:47:29.263Z,94562.00
2023-04-25T02:48:29.141Z,94552.00
2023-04-25T02:49:29.155Z,94556.00
2023-04-25T02:50:29.161Z,94552.00
2023-04-25T02:51:29.181Z,94552.00
2023-04-25T02:52:29.205Z,94550.00
2023-04-25T02:53:29.243Z,94544.00
2023-04-25T02:54:29.349Z,94546.00
2023-04-25T02:55:29.276Z,94548.00
2023-04-25T02:56:29.321Z,94552.00
2023-04-25T02:57:29.326Z,94548.00
2023-04-25T02:58:29.357Z,94550.00
2023-04-25T02:59:29.387Z,94548.00
2023-04-25T03:00:29.459Z,94550.00
2023-04-25T03:01:29.445Z,94550.00
2023-04-25T03:02:29.551Z,94546.00
2023-04-25T03:03:29.520Z,94550.00
2023-04-25T03:04:29.564Z,94548.00
2023-04-25T03:05:29.498Z,94546.00
2023-04-25T03:06:29.494Z,94546.00
2023-04-25T03:07:29.494Z,94544.00
2023-04-25T03:08:29.497Z,94544.00
2023-04-25T03:09:29.518Z,94543.00
2023-04-25T03:10:29.541Z,94537.00
2023-04-25T03:11:29.529Z,94537.00
2023-04-25T03:12:29.531Z,94537.00
2023-04-25T03:13:29.529Z,94537.00
2023-04-25T03:14:29.533Z,94539.00
2023-04-25T03:15:29.549Z,94537.00
2023-04-25T03:16:29.595Z,94533.00
2023-04-25T03:17:29.588Z,94533.00
2023-04-25T03:18:29.561Z,94533.00
2023-04-25T03:19:29.608Z,94533.00
2023-04-25T03:20:29.676Z,94529.00
2023-04-25T03:21:29.719Z,94531.00
2023-04-25T03:22:29.770Z,94531.00
2023-04-25T03:23:29.815Z,94531.00
2023-04-25T03:24:29.910Z,94531.00
2023-04-25T03:25:29.936Z,94531.00
2023-04-25T03:26:29.997Z,94531.00
2023-04-25T03:27:30.038Z,94533.00
2023-04-25T03:28:30.131Z,94531.00
2023-04-25T03:29:30.186Z,94531.00
2023-04-25T03:30:30.258Z,94529.00
2023-04-25T03:31:30.341Z,94529.00
2023-04-25T03:32:30.390Z,94531.00
2023-04-25T03:33:30.402Z,94531.00
2023-04-25T03:34:30.456Z,94531.00
2023-04-25T03:35:30.499Z,94531.00
2023-04-25T03:36:30.529Z,94531.00
2023-04-25T03:37:30.583Z,94535.00
2023-04-25T03:38:30.610Z,94537.00
2023-04-25T03:39:30.647Z,94537.00
2023-04-25T03:40:30.682Z,94537.00
2023-04-25T03:41:30.698Z,94533.00
2023-04-25T03:42:30.749Z,94535.00
2023-04-25T03:43:30.760Z,94533.00
2023-04-25T03:44:30.804Z,94533.00
2023-04-25T03:45:30.849Z,94535.00
2023-04-25T03:46:31.048Z,94537.00
2023-04-25T03:47:30.948Z,94537.00
2023-04-25T03:48:30.956Z,94537.00
2023-04-25T03:49:31.004Z,94535.00
2023-04-25T03:50:31.026Z,94533.00
2023-04-25T03:51:31.069Z,94531.00
2023-04-25T03:52:31.090Z,94529.00
2023-04-25T03:53:31.122Z,94527.00
2023-04-25T03:54:31.159Z,94527.00
2023-04-25T03:55:31.204Z,94529.00
2023-04-25T03:56:31.260Z,94527.00
2023-04-25T03:57:31.312Z,94525.00
2023-04-25T03:58:31.397Z,94527.00
2023-04-25T03:59:31.419Z,94527.00
2023-04-25T04:00:31.477Z,94529.00
2023-04-25T04:01:31.523Z,94527.00
2023-04-25T04:02:31.636Z,94525.00
2023-04-25T04:03:31.690Z,94525.00
2023-04-25T04:04:31.878Z,94529.00
2023-04-25T04:05:31.708Z,94533.00
2023-04-25T04:06:31.701Z,94533.00
2023-04-25T04:07:31.774Z,94537.00
2023-04-25T04:08:31.867Z,94535.00
2023-04-25T04:09:31.905Z,94535.00
2023-04-25T04:10:31.976Z,94537.00
2023-04-25T04:11:32.064Z,94539.00
2023-04-25T04:12:32.127Z,94539.00
2023-04-25T04:13:32.189Z,94539.00
2023-04-25T04:14:32.283Z,94537.00
2023-04-25T04:15:32.410Z,94541.00
2023-04-25T04:16:34.425Z,94541.00
2023-04-25T04:17:32.415Z,94541.00
2023-04-25T04:18:32.404Z,94539.00
2023-04-25T04:19:32.463Z,94543.00
2023-04-25T04:20:32.443Z,94541.00
2023-04-25T04:21:32.417Z,94539.00
2023-04-25T04:22:32.432Z,94543.00
2023-04-25T04:23:32.400Z,94539.00
2023-04-25T04:24:32.410Z,94539.00
2023-04-25T04:25:32.398Z,94539.00
2023-04-25T04:26:32.390Z,94539.00
2023-04-25T04:27:32.379Z,94543.00
2023-04-25T04:28:32.389Z,94543.00
2023-04-25T04:29:32.372Z,94539.00
2023-04-25T04:30:32.389Z,94539.00
2023-04-25T04:31:32.396Z,94541.00
2023-04-25T04:32:32.423Z,94543.00
2023-04-25T04:33:32.352Z,94541.00
2023-04-25T04:34:32.393Z,94543.00
2023-04-25T04:35:32.361Z,94541.00
2023-04-25T04:36:32.338Z,94541.00
2023-04-25T04:37:32.351Z,94539.00
2023-04-25T04:38:32.336Z,94537.00
2023-04-25T04:39:32.343Z,94539.00
2023-04-25T04:40:32.357Z,94537.00
2023-04-25T04:41:32.369Z,94535.00
2023-04-25T04:42:32.390Z,94537.00
2023-04-25T04:43:32.362Z,94539.00
2023-04-25T04:44:32.370Z,94537.00
2023-04-25T04:45:32.376Z,94537.00
2023-04-25T04:46:32.485Z,94535.00
2023-04-25T04:47:32.512Z,94535.00
2023-04-25T04:48:32.535Z,94535.00
2023-04-25T04:49:32.558Z,94537.00
2023-04-25T04:50:32.608Z,94535.00
2023-04-25T04:51:32.658Z,94535.00
2023-04-25T04:52:32.710Z,94537.00
2023-04-25T04:53:32.755Z,94533.00
2023-04-25T04:54:32.796Z,94535.00
2023-04-25T04:55:32.851Z,94533.00
2023-04-25T04:56:32.871Z,94531.00
2023-04-25T04:57:32.939Z,94535.00
2023-04-25T04:58:32.943Z,94531.00
2023-04-25T04:59:32.976Z,94531.00
2023-04-25T05:00:33.045Z,94527.00
2023-04-25T05:01:33.053Z,94527.00
2023-04-25T05:02:33.281Z,94525.00
2023-04-25T05:03:33.247Z,94529.00
2023-04-25T05:04:33.193Z,94531.00
2023-04-25T05:05:33.102Z,94533.00
2023-04-25T05:06:33.129Z,94533.00
2023-04-25T05:07:33.158Z,94529.00
2023-04-25T05:08:33.151Z,94527.00
2023-04-25T05:09:33.160Z,94523.00
2023-04-25T05:10:33.181Z,94519.00
2023-04-25T05:11:33.197Z,94517.00
2023-04-25T05:12:34.124Z,94517.00
2023-04-25T05:13:33.191Z,94519.00
2023-04-25T05:14:33.182Z,94513.00
2023-04-25T05:15:33.203Z,94519.00
2023-04-25T05:16:33.265Z,94519.00
2023-04-25T05:17:33.233Z,94519.00
2023-04-25T05:18:33.203Z,94513.00
2023-04-25T05:19:33.193Z,94515.00
2023-04-25T05:20:33.220Z,94519.00
2023-04-25T05:21:33.191Z,94515.00
2023-04-25T05:22:33.461Z,94515.00
2023-04-25T05:23:33.521Z,94521.00
2023-04-25T05:24:33.189Z,94521.00
2023-04-25T05:25:33.197Z,94519.00
2023-04-25T05:26:33.186Z,94523.00
2023-04-25T05:27:33.208Z,94523.00
2023-04-25T05:28:33.177Z,94519.00
2023-04-25T05:29:33.174Z,94517.00
2023-04-25T05:30:33.170Z,94515.00
2023-04-25T05:31:33.216Z,94515.00
2023-04-25T05:32:33.179Z,94515.00
2023-04-25T05:33:33.191Z,94515.00
2023-04-25T05:34:33.281Z,94517.00
2023-04-25T05:35:33.264Z,94515.00
2023-04-25T05:36:33.145Z,94511.00
2023-04-25T05:37:33.456Z,94513.00
2023-04-25T05:38:34.842Z,94509.00
2023-04-25T05:39:33.131Z,94511.00
2023-04-25T05:40:33.082Z,94509.00
2023-04-25T05:41:33.093Z,94507.00
2023-04-25T05:42:33.506Z,94507.00
2023-04-25T05:43:33.050Z,94509.00
2023-04-25T05:44:33.068Z,94505.00
2023-04-25T05:45:33.039Z,94509.00
2023-04-25T05:46:33.038Z,94507.00
2023-04-25T05:47:33.542Z,94507.00
2023-04-25T05:48:32.996Z,94507.00
2023-04-25T05:49:32.985Z,94505.00
2023-04-25T05:50:32.983Z,94505.00
2023-04-25T05:51:32.945Z,94507.00
2023-04-25T05:52:32.955Z,94509.00
2023-04-25T05:53:32.900Z,94507.00
2023-04-25T05:54:36.079Z,94505.00
2023-04-25T05:55:32.959Z,94507.00
2023-04-25T05:56:32.851Z,94509.00
2023-04-25T05:57:32.814Z,94513.00
2023-04-25T05:58:33.068Z,94511.00
2023-04-25T05:59:32.806Z,94515.00
2023-04-25T06:00:33.547Z,94511.00
2023-04-25T06:01:32.728Z,94515.00
2023-04-25T06:02:32.863Z,94515.00
2023-04-25T06:03:33.125Z,94513.00
2023-04-25T06:04:36.111Z,94509.00
2023-04-25T06:05:40.071Z,94509.00
2023-04-25T06:06:32.598Z,94509.00
2023-04-25T06:07:32.991Z,94511.00
2023-04-25T06:08:32.998Z,94509.00
2023-04-25T06:09:32.531Z,94507.00
2023-04-25T06:10:35.678Z,94507.00
2023-04-25T06:11:32.497Z,94507.00
2023-04-25T06:12:32.474Z,94505.00
2023-04-25T06:13:32.493Z,94497.00
2023-04-25T06:14:32.424Z,94497.00
2023-04-25T06:15:32.369Z,94497.00
2023-04-25T06:16:32.469Z,94496.00
2023-04-25T06:17:32.363Z,94494.00
2023-04-25T06:18:32.276Z,94497.00
2023-04-25T06:19:32.275Z,94497.00
2023-04-25T06:20:32.217Z,94499.00
2023-04-25T06:21:32.240Z,94497.00
2023-04-25T06:22:32.205Z,94496.00
2023-04-25T06:23:32.513Z,94490.00
2023-04-25T06:24:32.129Z,94484.00
2023-04-25T06:25:32.133Z,94476.00
2023-04-25T06:26:32.124Z,94472.00
2023-04-25T06:27:32.139Z,94470.00
2023-04-25T06:28:32.125Z,94470.00
2023-04-25T06:29:32.122Z,94474.00
2023-04-25T06:30:32.576Z,94476.00
2023-04-25T06:31:32.121Z,94478.00
2023-04-25T06:32:32.155Z,94482.00
2023-04-25T06:33:32.123Z,94480.00
2023-04-25T06:34:32.080Z,94480.00
2023-04-25T06:35:32.044Z,94478.00
2023-04-25T06:36:32.026Z,94478.00
2023-04-25T06:37:32.495Z,94480.00
2023-04-25T06:38:31.991Z,94478.00
2023-04-25T06:39:31.961Z,94480.00
2023-04-25T06:40:31.969Z,94480.00
2023-04-25T06:41:31.944Z,94476.00
2023-04-25T06:42:31.958Z,94476.00
2023-04-25T06:43:31.952Z,94478.00
2023-04-25T06:44:32.510Z,94478.00
2023-04-25T06:45:32.446Z,94478.00
2023-04-25T06:46:33.033Z,94478.00
2023-04-25T06:47:32.582Z,94478.00
2023-04-25T06:48:32.199Z,94470.00
2023-04-25T06:49:35.374Z,94472.00
2023-04-25T06:50:32.517Z,94470.00
2023-04-25T06:51:32.180Z,94466.00
2023-04-25T06:52:32.982Z,94462.00
2023-04-25T06:53:33.086Z,94464.00
2023-04-25T06:54:32.595Z,94466.00
2023-04-25T06:55:32.699Z,94470.00
2023-04-25T06:56:32.360Z,94466.00
2023-04-25T06:57:32.259Z,94468.00
2023-04-25T06:58:32.511Z,94466.00
2023-04-25T06:59:32.171Z,94464.00
2023-04-25T07:00:32.261Z,94464.00
2023-04-25T07:01:32.497Z,94464.00
2023-04-25T07:02:32.147Z,94460.00
2023-04-25T07:03:32.124Z,94460.00
2023-04-25T07:04:32.199Z,94462.00
2023-04-25T07:05:31.982Z,94464.00
2023-04-25T07:06:31.886Z,94466.00
2023-04-25T07:07:32.251Z,94466.00
2023-04-25T07:08:31.821Z,94470.00
2023-04-25T07:09:31.826Z,94462.00
2023-04-25T07:10:32.003Z,94462.00
2023-04-25T07:11:31.854Z,94460.00
2023-04-25T07:12:31.940Z,94464.00
2023-04-25T07:13:31.728Z,94466.00
2023-04-25T07:14:31.713Z,94468.00
2023-04-25T07:15:32.023Z,94468.00
2023-04-25T07:16:31.641Z,94468.00
2023-04-25T07:17:31.609Z,94466.00
2023-04-25T07:18:31.571Z,94464.00
2023-04-25T07:19:31.608Z,94464.00
2023-04-25T07:20:31.551Z,94462.00
2023-04-25T07:21:31.535Z,94464.00
2023-04-25T07:22:31.980Z,94462.00
2023-04-25T07:23:31.589Z,94464.00
2023-04-25T07:24:31.587Z,94466.00
2023-04-25T07:25:31.610Z,94466.00
2023-04-25T07:26:31.567Z,94464.00
2023-04-25T07:27:31.897Z,94464.00
2023-04-25T07:28:31.786Z,94462.00
2023-04-25T07:29:31.927Z,94460.00
2023-04-25T07:30:31.666Z,94460.00
2023-04-25T07:31:32.028Z,94460.00
2023-04-25T07:32:31.909Z,94458.00
2023-04-25T07:33:31.722Z,94464.00
2023-04-25T07:34:31.897Z,94464.00
2023-04-25T07:35:32.029Z,94462.00
2023-04-25T07:36:32.434Z,94462.00
2023-04-25T07:37:31.964Z,94462.00
2023-04-25T07:38:31.997Z,94462.00
2023-04-25T07:39:32.039Z,94464.00
2023-04-25T07:40:32.381Z,94464.00
2023-04-25T07:41:32.072Z,94462.00
2023-04-25T07:42:31.882Z,94462.00
2023-04-25T07:43:32.250Z,94464.00
2023-04-25T07:44:32.327Z,94464.00
2023-04-25T07:45:32.074Z,94470.00
2023-04-25T07:46:32.188Z,94470.00
2023-04-25T07:47:32.320Z,94466.00
2023-04-25T07:48:32.623Z,94468.00
2023-04-25T07:49:32.697Z,94470.00
2023-04-25T07:50:32.236Z,94472.00
2023-04-25T07:51:32.327Z,94472.00
2023-04-25T07:52:32.146Z,94470.00
2023-04-25T07:53:32.962Z,94472.00
2023-04-25T07:54:32.486Z,94472.00
2023-04-25T07:55:32.676Z,94476.00
2023-04-25T07:56:45.110Z,94474.00
2023-04-25T07:57:32.510Z,94478.00
2023-04-25T07:58:33.396Z,94474.00
2023-04-25T07:59:32.182Z,94476.00
2023-04-25T08:00:32.188Z,94472.00
2023-04-25T08:01:32.217Z,94468.00
2023-04-25T08:02:32.602Z,94470.00
2023-04-25T08:03:32.398Z,94472.00
2023-04-25T08:04:32.821Z,94474.00
2023-04-25T08:05:35.647Z,94472.00
2023-04-25T08:06:33.505Z,94474.00
2023-04-25T08:07:32.517Z,94472.00
2023-04-25T08:08:32.500Z,94476.00
2023-04-25T08:09:32.285Z,94474.00
2023-04-25T08:10:32.490Z,94474.00
2023-04-25T08:11:32.490Z,94472.00
2023-04-25T08:12:32.619Z,94476.00
2023-04-25T08:13:32.515Z,94474.00
2023-04-25T08:14:32.482Z,94474.00
2023-04-25T08:15:32.610Z,94474.00
2023-04-25T08:16:32.596Z,94474.00
2023-04-25T08:17:32.585Z,94476.00
2023-04-25T08:18:33.004Z,94476.00
2023-04-25T08:19:32.712Z,94476.00
2023-04-25T08:20:32.692Z,94478.00
2023-04-25T08:21:32.759Z,94476.00
2023-04-25T08:22:32.812Z,94474.00
2023-04-25T08:23:33.000Z,94472.00
2023-04-25T08:24:32.891Z,94476.00
2023-04-25T08:25:33.425Z,94470.00
2023-04-25T08:26:33.048Z,94470.00
2023-04-25T08:27:33.463Z,94472.00
2023-04-25T08:28:33.002Z,94472.00
2023-04-25T08:29:33.000Z,94474.00
2023-04-25T08:30:33.052Z,94474.00
2023-04-25T08:31:32.968Z,94468.00
2023-04-25T08:32:32.952Z,94476.00
2023-04-25T08:33:33.018Z,94470.00
2023-04-25T08:34:32.946Z,94472.00
2023-04-25T08:35:32.950Z,94476.00
2023-04-25T08:36:39.442Z,94476.00
2023-04-25T08:37:32.894Z,94476.00
2023-04-25T08:38:33.558Z,94474.00
2023-04-25T08:39:33.119Z,94478.00
2023-04-25T08:40:33.048Z,94474.00
2023-04-25T08:41:33.020Z,94478.00
2023-04-25T08:42:32.998Z,94480.00
2023-04-25T08:43:36.197Z,94480.00
2023-04-25T08:44:33.017Z,94478.00
2023-04-25T08:45:32.938Z,94482.00
2023-04-25T08:46:34.145Z,94480.00
2023-04-25T08:47:33.116Z,94480.00
2023-04-25T08:48:33.026Z,94478.00
2023-04-25T08:49:32.801Z,94480.00
2023-04-25T08:50:32.816Z,94482.00
2023-04-25T08:51:33.252Z,94484.00
2023-04-25T08:52:32.818Z,94482.00
2023-04-25T08:53:34.050Z,94484.00
2023-04-25T08:54:35.166Z,94484.00
2023-04-25T08:55:32.765Z,94484.00
2023-04-25T08:56:32.745Z,94480.00
2023-04-25T08:57:32.718Z,94480.00
2023-04-25T08:58:33.076Z,94480.00
2023-04-25T08:59:32.609Z,94482.00
2023-04-25T09:00:32.751Z,94478.00
2023-04-25T09:01:32.866Z,94482.00
2023-04-25T09:02:32.602Z,94476.00
2023-04-25T09:03:32.981Z,94476.00
2023-04-25T09:04:32.434Z,94476.00
2023-04-25T09:05:32.304Z,94476.00
2023-04-25T09:06:32.258Z,94478.00
2023-04-25T09:07:32.183Z,94478.00
2023-04-25T09:08:32.155Z,94478.00
2023-04-25T09:09:32.525Z,94478.00
2023-04-25T09:10:33.148Z,94474.00
2023-04-25T09:11:32.539Z,94474.00
2023-04-25T09:12:32.114Z,94474.00
2023-04-25T09:13:32.205Z,94480.00
2023-04-25T09:14:32.126Z,94478.00
2023-04-25T09:15:32.057Z,94478.00
2023-04-25T09:16:33.659Z,94480.00
2023-04-25T09:17:32.103Z,94478.00
2023-04-25T09:18:31.855Z,94476.00
2023-04-25T09:19:40.318Z,94476.00
2023-04-25T09:20:33.361Z,94478.00
2023-04-25T09:21:32.032Z,94474.00
2023-04-25T09:22:31.628Z,94474.00
2023-04-25T09:23:31.569Z,94474.00
2023-04-25T09:24:31.513Z,94474.00
2023-04-25T09:25:31.451Z,94474.00
2023-04-25T09:26:31.555Z,94468.00
2023-04-25T09:27:31.423Z,94470.00
2023-04-25T09:28:31.297Z,94468.00
2023-04-25T09:29:31.509Z,94468.00
2023-04-25T09:30:31.512Z,94470.00
2023-04-25T09:31:31.649Z,94472.00
2023-04-25T09:32:31.140Z,94468.00
2023-04-25T09:33:31.564Z,94474.00
2023-04-25T09:34:31.606Z,94474.00
2023-04-25T09:35:31.348Z,94476.00
2023-04-25T09:36:30.704Z,94476.00
2023-04-25T09:37:30.684Z,94478.00
2023-04-25T09:38:30.762Z,94476.00
2023-04-25T09:39:31.015Z,94476.00
2023-04-25T09:40:31.015Z,94480.00
2023-04-25T09:41:30.558Z,94478.00
2023-04-25T09:42:30.533Z,94478.00
2023-04-25T09:43:30.527Z,94480.00
2023-04-25T09:44:30.494Z,94478.00
2023-04-25T09:45:30.506Z,94476.00
2023-04-25T09:46:30.516Z,94474.00
2023-04-25T09:47:30.535Z,94474.00
2023-04-25T09:48:30.435Z,94476.00
2023-04-25T09:49:30.469Z,94466.00
2023-04-25T09:50:30.348Z,94466.00
2023-04-25T09:51:30.291Z,94466.00
2023-04-25T09:52:30.217Z,94466.00
2023-04-25T09:53:30.162Z,94466.00
2023-04-25T09:54:30.533Z,94464.00
2023-04-25T09:55:29.985Z,94460.00
2023-04-25T09:56:29.929Z,94460.00
2023-04-25T09:57:29.843Z,94460.00
2023-04-25T09:58:31.851Z,94454.00
2023-04-25T09:59:30.027Z,94452.00
2023-04-25T10:00:29.612Z,94456.00
2023-04-25T10:01:29.530Z,94450.00
2023-04-25T10:02:29.568Z,94454.00
2023-04-25T10:03:29.454Z,94454.00
2023-04-25T10:04:30.643Z,94452.00
2023-04-25T10:05:29.234Z,94450.00
2023-04-25T10:06:29.120Z,94450.00
2023-04-25T10:07:29.043Z,94448.00
2023-04-25T10:08:28.988Z,94448.00
2023-04-25T10:09:28.897Z,94444.00
2023-04-25T10:10:30.777Z,94444.00
2023-04-25T10:11:28.754Z,94446.00
2023-04-25T10:12:28.693Z,94444.00
2023-04-25T10:13:28.589Z,94439.00
2023-04-25T10:14:29.025Z,94442.00
2023-04-25T10:15:28.524Z,94439.00
2023-04-25T10:16:28.469Z,94439.00
2023-04-25T10:17:28.365Z,94435.00
2023-04-25T10:18:28.536Z,94431.00
2023-04-25T10:19:28.236Z,94433.00
2023-04-25T10:20:28.153Z,94429.00
2023-04-25T10:21:28.111Z,94431.00
2023-04-25T10:22:28.026Z,94431.00
2023-04-25T10:23:31.249Z,94425.00
2023-04-25T10:24:28.024Z,94427.00
2023-04-25T10:25:27.788Z,94425.00
2023-04-25T10:27:26.676Z,94425.00
2023-04-25T10:28:27.617Z,94423.00
2023-04-25T10:29:28.080Z,94423.00
2023-04-25T10:30:27.516Z,94421.00
2023-04-25T10:31:27.639Z,94419.00
2023-04-25T10:32:27.905Z,94415.00
2023-04-25T10:33:28.050Z,94419.00
2023-04-25T10:34:27.652Z,94415.00
2023-04-25T10:35:27.728Z,94415.00
2023-04-25T10:36:27.779Z,94417.00
2023-04-25T10:37:28.140Z,94417.00
2023-04-25T10:38:27.649Z,94417.00
2023-04-25T10:39:28.062Z,94413.00
2023-04-25T10:40:27.616Z,94417.00
2023-04-25T10:41:27.603Z,94413.00
2023-04-25T10:42:27.585Z,94413.00
2023-04-25T10:43:27.590Z,94413.00
2023-04-25T10:44:28.058Z,94409.00
2023-04-25T10:45:27.737Z,94411.00
2023-04-25T10:46:27.711Z,94411.00
2023-04-25T10:47:27.669Z,94413.00
2023-04-25T10:48:27.644Z,94419.00
2023-04-25T10:49:28.070Z,94419.00
2023-04-25T10:50:27.602Z,94421.00
2023-04-25T10:52:26.572Z,94423.00
2023-04-25T10:53:28.161Z,94423.00
2023-04-25T10:54:27.512Z,94423.00
2023-04-25T10:55:27.487Z,94423.00
2023-04-25T10:56:27.487Z,94421.00
2023-04-25T10:57:27.465Z,94419.00
2023-04-25T10:58:27.530Z,94419.00
2023-04-25T10:59:27.529Z,94419.00
2023-04-25T11:00:33.922Z,94419.00
2023-04-25T11:01:27.349Z,94419.00
2023-04-25T11:02:27.286Z,94411.00
2023-04-25T11:03:27.302Z,94411.00
2023-04-25T11:04:27.772Z,94415.00
2023-04-25T11:05:27.175Z,94415.00
2023-04-25T11:07:48.067Z,94407.00
2023-04-25T11:08:47.017Z,94417.00
2023-04-25T11:09:46.399Z,94409.00
2023-04-25T11:10:46.395Z,94409.00
2023-04-25T11:11:46.149Z,94405.00
2023-04-25T11:12:46.136Z,94407.00
2023-04-25T11:13:46.394Z,94405.00
2023-04-25T11:14:46.085Z,94405.00
2023-04-25T11:15:46.065Z,94401.00
2023-04-25T11:16:46.461Z,94401.00
2023-04-25T11:17:46.263Z,94403.00
2023-04-25T11:18:46.046Z,94409.00
2023-04-25T11:19:46.407Z,94407.00
2023-04-25T11:20:46.028Z,94403.00
2023-04-25T11:21:46.464Z,94403.00
2023-04-25T11:22:46.428Z,94407.00
2023-04-25T11:23:46.089Z,94401.00
2023-04-25T11:24:46.223Z,94397.00
2023-04-25T11:25:46.129Z,94403.00
2023-04-25T11:26:46.435Z,94397.00
2023-04-25T11:27:46.425Z,94399.00
2023-04-25T11:28:46.326Z,94401.00
2023-04-25T11:29:46.325Z,94397.00
2023-04-25T11:30:46.398Z,94397.00
2023-04-25T11:31:46.536Z,94395.00
2023-04-25T11:32:46.949Z,94392.00
2023-04-25T11:33:46.598Z,94401.00
2023-04-25T11:34:46.672Z,94401.00
2023-04-25T11:35:46.922Z,94392.00
2023-04-25T11:36:46.780Z,94392.00
2023-04-25T11:37:46.829Z,94394.00
2023-04-25T11:38:46.885Z,94392.00
2023-04-25T11:39:46.935Z,94390.00
2023-04-25T11:40:47.458Z,94397.00
2023-04-25T11:41:47.034Z,94397.00
2023-04-25T11:42:47.122Z,94397.00
2023-04-25T11:43:47.177Z,94401.00
2023-04-25T11:44:47.424Z,94401.00
2023-04-25T11:45:47.270Z,94399.00
2023-04-25T11:46:47.240Z,94403.00
2023-04-25T11:47:47.312Z,94399.00